createdAt,value
2023-03-04T00:00:08.568Z,1000.89
2023-03-04T00:01:08.531Z,1000.93
2023-03-04T00:02:08.592Z,1000.90
2023-03-04T00:03:08.567Z,1000.95
2023-03-04T00:04:08.493Z,1000.97
2023-03-04T00:05:08.452Z,1000.98
2023-03-04T00:06:08.436Z,1001.02
2023-03-04T00:07:08.402Z,1001.00
2023-03-04T00:08:08.389Z,1001.01
2023-03-04T00:09:08.365Z,1001.00
2023-03-04T00:10:08.347Z,1001.01
2023-03-04T00:11:08.322Z,1000.99
2023-03-04T00:12:08.304Z,1001.00
2023-03-04T00:13:08.280Z,1001.01
2023-03-04T00:14:08.266Z,1001.02
2023-03-04T00:15:08.238Z,1001.00
2023-03-04T00:16:08.255Z,1001.05
2023-03-04T00:17:08.210Z,1000.99
2023-03-04T00:18:08.192Z,1001.04
2023-03-04T00:19:08.163Z,1001.02
2023-03-04T00:20:08.145Z,1001.05
2023-03-04T00:21:08.120Z,1001.03
2023-03-04T00:22:08.106Z,1001.04
2023-03-04T00:23:08.086Z,1001.04
2023-03-04T00:24:08.052Z,1001.01
2023-03-04T00:25:08.032Z,1001.02
2023-03-04T00:26:08.011Z,1001.07
2023-03-04T00:27:07.998Z,1001.05
2023-03-04T00:28:07.978Z,1001.04
2023-03-04T00:29:07.943Z,1001.04
2023-03-04T00:30:07.940Z,1001.05
2023-03-04T00:31:07.898Z,1001.03
2023-03-04T00:32:08.043Z,1001.02
2023-03-04T00:33:07.876Z,1001.04
2023-03-04T00:34:07.856Z,1001.01
2023-03-04T00:35:07.819Z,1001.07
2023-03-04T00:36:07.803Z,1001.05
2023-03-04T00:37:07.776Z,1001.08
2023-03-04T00:38:07.758Z,1001.08
2023-03-04T00:39:07.733Z,1001.10
2023-03-04T00:40:07.722Z,1001.08
2023-03-04T00:41:07.696Z,1001.10
2023-03-04T00:42:07.672Z,1001.09
2023-03-04T00:43:07.657Z,1001.05
2023-03-04T00:44:07.649Z,1001.05
2023-03-04T00:45:07.614Z,1001.05
2023-03-04T00:46:07.662Z,1001.06
2023-03-04T00:47:07.567Z,1001.06
2023-03-04T00:48:07.548Z,1001.07
2023-03-04T00:49:07.530Z,1001.06
2023-03-04T00:50:07.507Z,1001.12
2023-03-04T00:51:07.482Z,1001.11
2023-03-04T00:52:07.461Z,1001.06
2023-03-04T00:53:07.440Z,1001.05
2023-03-04T00:54:07.416Z,1001.08
2023-03-04T00:55:07.397Z,1001.07
2023-03-04T00:56:07.378Z,1001.07
2023-03-04T00:57:07.352Z,1001.10
2023-03-04T00:58:07.330Z,1001.05
2023-03-04T00:59:07.316Z,1001.01
2023-03-04T01:00:07.285Z,1001.04
2023-03-04T01:01:07.293Z,1001.04
2023-03-04T01:02:07.317Z,1001.02
2023-03-04T01:03:07.225Z,1001.01
2023-03-04T01:04:07.197Z,1001.00
2023-03-04T01:05:07.175Z,1001.03
2023-03-04T01:06:07.158Z,1001.01
2023-03-04T01:07:07.146Z,1001.03
2023-03-04T01:08:07.134Z,1001.01
2023-03-04T01:09:07.145Z,1001.03
2023-03-04T01:10:07.069Z,1001.04
2023-03-04T01:11:07.048Z,1001.04
2023-03-04T01:12:07.028Z,1001.03
2023-03-04T01:13:07.005Z,1001.02
2023-03-04T01:14:06.985Z,1001.06
2023-03-04T01:15:06.967Z,1001.01
2023-03-04T01:16:06.947Z,1001.00
2023-03-04T01:17:06.932Z,1001.02
2023-03-04T01:18:06.909Z,1000.99
2023-03-04T01:19:06.875Z,1000.98
2023-03-04T01:20:06.863Z,1000.98
2023-03-04T01:21:06.833Z,1000.96
2023-03-04T01:22:06.813Z,1000.95
2023-03-04T01:23:06.794Z,1000.96
2023-03-04T01:24:06.769Z,1000.96
2023-03-04T01:25:06.752Z,1000.95
2023-03-04T01:26:06.724Z,1000.88
2023-03-04T01:27:06.710Z,1000.91
2023-03-04T01:28:06.683Z,1000.89
2023-03-04T01:29:06.665Z,1000.89
2023-03-04T01:30:06.641Z,1000.89
2023-03-04T01:31:06.662Z,1000.88
2023-03-04T01:32:06.632Z,1000.87
2023-03-04T01:33:06.580Z,1000.89
2023-03-04T01:34:06.556Z,1000.89
2023-03-04T01:35:06.534Z,1000.86
2023-03-04T01:36:06.514Z,1000.83
2023-03-04T01:37:06.492Z,1000.81
2023-03-04T01:38:06.471Z,1000.86
2023-03-04T01:39:06.450Z,1000.84
2023-03-04T01:40:06.429Z,1000.79
2023-03-04T01:41:06.409Z,1000.80
2023-03-04T01:42:06.390Z,1000.80
2023-03-04T01:43:06.363Z,1000.77
2023-03-04T01:44:06.355Z,1000.72
2023-03-04T01:45:06.327Z,1000.72
2023-03-04T01:46:06.394Z,1000.72
2023-03-04T01:47:06.282Z,1000.69
2023-03-04T01:48:06.256Z,1000.63
2023-03-04T01:49:06.292Z,1000.67
2023-03-04T01:50:06.217Z,1000.72
2023-03-04T01:51:06.210Z,1000.65
2023-03-04T01:52:06.179Z,1000.71
2023-03-04T01:53:06.151Z,1000.64
2023-03-04T01:54:06.131Z,1000.64
2023-03-04T01:55:06.127Z,1000.64
2023-03-04T01:56:06.086Z,1000.66
2023-03-04T01:57:06.064Z,1000.65
2023-03-04T01:58:06.044Z,1000.65
2023-03-04T01:59:06.025Z,1000.66
2023-03-04T02:00:06.002Z,1000.58
2023-03-04T02:01:05.979Z,1000.59
2023-03-04T02:02:05.969Z,1000.62
2023-03-04T02:03:05.945Z,1000.64
2023-03-04T02:04:05.982Z,1000.61
2023-03-04T02:05:05.900Z,1000.60
2023-03-04T02:06:05.874Z,1000.59
2023-03-04T02:07:05.850Z,1000.58
2023-03-04T02:08:05.854Z,1000.58
2023-03-04T02:09:05.805Z,1000.52
2023-03-04T02:10:05.807Z,1000.57
2023-03-04T02:11:05.774Z,1000.58
2023-03-04T02:12:05.741Z,1000.53
2023-03-04T02:13:05.730Z,1000.53
2023-03-04T02:14:05.743Z,1000.55
2023-03-04T02:15:05.706Z,1000.54
2023-03-04T02:16:05.774Z,1000.57
2023-03-04T02:17:05.660Z,1000.54
2023-03-04T02:18:05.621Z,1000.53
2023-03-04T02:19:05.595Z,1000.49
2023-03-04T02:20:05.580Z,1000.55
2023-03-04T02:21:05.552Z,1000.53
2023-03-04T02:22:05.538Z,1000.41
2023-03-04T02:23:05.513Z,1000.48
2023-03-04T02:24:05.493Z,1000.43
2023-03-04T02:25:05.469Z,1000.39
2023-03-04T02:26:05.450Z,1000.38
2023-03-04T02:27:05.429Z,1000.40
2023-03-04T02:28:05.406Z,1000.36
2023-03-04T02:29:05.386Z,1000.35
2023-03-04T02:30:05.369Z,1000.35
2023-03-04T02:31:05.382Z,1000.30
2023-03-04T02:32:05.359Z,1000.32
2023-03-04T02:33:05.315Z,1000.31
2023-03-04T02:34:05.280Z,1000.33
2023-03-04T02:35:05.266Z,1000.38
2023-03-04T02:36:05.239Z,1000.35
2023-03-04T02:37:05.218Z,1000.35
2023-03-04T02:38:05.197Z,1000.33
2023-03-04T02:39:05.191Z,1000.34
2023-03-04T02:40:05.162Z,1000.30
2023-03-04T02:41:05.137Z,1000.32
2023-03-04T02:42:05.124Z,1000.36
2023-03-04T02:43:05.106Z,1000.28
2023-03-04T02:44:05.078Z,1000.31
2023-03-04T02:45:05.055Z,1000.24
2023-03-04T02:46:05.036Z,1000.24
2023-03-04T02:47:05.022Z,1000.32
2023-03-04T02:48:04.997Z,1000.26
2023-03-04T02:49:04.975Z,1000.25
2023-03-04T02:50:04.954Z,1000.24
2023-03-04T02:51:04.930Z,1000.29
2023-03-04T02:52:04.917Z,1000.24
2023-03-04T02:53:05.112Z,1000.21
2023-03-04T02:54:04.892Z,1000.21
2023-03-04T02:55:04.858Z,1000.23
2023-03-04T02:56:04.833Z,1000.23
2023-03-04T02:57:04.813Z,1000.22
2023-03-04T02:58:04.793Z,1000.25
2023-03-04T02:59:04.770Z,1000.26
2023-03-04T03:00:04.752Z,1000.25
2023-03-04T03:01:04.742Z,1000.27
2023-03-04T03:02:04.832Z,1000.24
2023-03-04T03:03:04.773Z,1000.27
2023-03-04T03:04:04.680Z,1000.25
2023-03-04T03:05:04.658Z,1000.27
2023-03-04T03:06:04.704Z,1000.25
2023-03-04T03:07:04.612Z,1000.27
2023-03-04T03:08:04.594Z,1000.25
2023-03-04T03:09:04.574Z,1000.22
2023-03-04T03:10:04.566Z,1000.25
2023-03-04T03:11:04.544Z,1000.28
2023-03-04T03:12:04.513Z,1000.31
2023-03-04T03:13:04.504Z,1000.28
2023-03-04T03:14:04.489Z,1000.29
2023-03-04T03:15:04.460Z,1000.28
2023-03-04T03:16:04.549Z,1000.28
2023-03-04T03:17:04.415Z,1000.28
2023-03-04T03:18:04.395Z,1000.27
2023-03-04T03:19:04.377Z,1000.28
2023-03-04T03:20:04.362Z,1000.32
2023-03-04T03:21:04.338Z,1000.29
2023-03-04T03:22:04.317Z,1000.25
2023-03-04T03:23:04.300Z,1000.27
2023-03-04T03:24:04.278Z,1000.26
2023-03-04T03:25:04.263Z,1000.29
2023-03-04T03:26:04.236Z,1000.25
2023-03-04T03:27:04.220Z,1000.27
2023-03-04T03:28:04.199Z,1000.25
2023-03-04T03:29:04.178Z,1000.27
2023-03-04T03:30:04.158Z,1000.22
2023-03-04T03:31:04.146Z,1000.24
2023-03-04T03:32:04.154Z,1000.21
2023-03-04T03:33:04.105Z,1000.23
2023-03-04T03:34:04.078Z,1000.24
2023-03-04T03:35:04.069Z,1000.19
2023-03-04T03:36:04.152Z,1000.20
2023-03-04T03:37:04.039Z,1000.25
2023-03-04T03:38:04.000Z,1000.17
2023-03-04T03:39:03.982Z,1000.21
2023-03-04T03:40:03.963Z,1000.23
2023-03-04T03:41:03.952Z,1000.22
2023-03-04T03:42:03.927Z,1000.22
2023-03-04T03:43:03.904Z,1000.24
2023-03-04T03:44:03.883Z,1000.25
2023-03-04T03:45:03.873Z,1000.24
2023-03-04T03:46:03.870Z,1000.24
2023-03-04T03:47:03.830Z,1000.17
2023-03-04T03:48:03.807Z,1000.18
2023-03-04T03:49:03.798Z,1000.23
2023-03-04T03:50:03.780Z,1000.21
2023-03-04T03:51:03.753Z,1000.19
2023-03-04T03:52:03.737Z,1000.18
2023-03-04T03:53:03.727Z,1000.15
2023-03-04T03:54:03.693Z,1000.16
2023-03-04T03:55:03.671Z,1000.18
2023-03-04T03:56:03.654Z,1000.20
2023-03-04T03:57:03.634Z,1000.18
2023-03-04T03:58:03.617Z,1000.21
2023-03-04T03:59:03.596Z,1000.22
2023-03-04T04:00:03.578Z,1000.18
2023-03-04T04:01:03.563Z,1000.18
2023-03-04T04:02:03.637Z,1000.17
2023-03-04T04:03:03.646Z,1000.25
2023-03-04T04:04:03.500Z,1000.18
2023-03-04T04:05:03.495Z,1000.21
2023-03-04T04:06:03.461Z,1000.20
2023-03-04T04:07:03.439Z,1000.21
2023-03-04T04:08:03.421Z,1000.20
2023-03-04T04:09:03.416Z,1000.18
2023-03-04T04:10:03.392Z,1000.18
2023-03-04T04:11:03.377Z,1000.19
2023-03-04T04:12:03.343Z,1000.18
2023-03-04T04:13:03.327Z,1000.23
2023-03-04T04:14:03.307Z,1000.20
2023-03-04T04:15:03.284Z,1000.17
2023-03-04T04:16:03.265Z,1000.16
2023-03-04T04:17:03.246Z,1000.18
2023-03-04T04:18:03.232Z,1000.19
2023-03-04T04:19:03.211Z,1000.21
2023-03-04T04:20:03.187Z,1000.17
2023-03-04T04:21:03.170Z,1000.18
2023-03-04T04:22:03.152Z,1000.20
2023-03-04T04:23:03.156Z,1000.18
2023-03-04T04:24:03.112Z,1000.15
2023-03-04T04:25:03.102Z,1000.13
2023-03-04T04:26:03.073Z,1000.12
2023-03-04T04:27:03.062Z,1000.14
2023-03-04T04:28:03.033Z,1000.08
2023-03-04T04:29:03.014Z,1000.12
2023-03-04T04:30:03.005Z,1000.09
2023-03-04T04:31:03.060Z,1000.11
2023-03-04T04:32:03.096Z,1000.11
2023-03-04T04:33:02.946Z,1000.10
2023-03-04T04:34:02.928Z,1000.10
2023-03-04T04:35:02.898Z,1000.11
2023-03-04T04:36:02.881Z,1000.17
2023-03-04T04:37:02.859Z,1000.13
2023-03-04T04:38:02.837Z,1000.13
2023-03-04T04:39:02.821Z,1000.13
2023-03-04T04:40:02.817Z,1000.10
2023-03-04T04:41:02.782Z,1000.09
2023-03-04T04:42:02.760Z,1000.05
2023-03-04T04:43:02.760Z,1000.09
2023-03-04T04:44:02.729Z,1000.08
2023-03-04T04:45:02.704Z,1000.09
2023-03-04T04:46:02.750Z,1000.07
2023-03-04T04:47:02.665Z,1000.10
2023-03-04T04:48:02.643Z,1000.10
2023-03-04T04:49:02.629Z,1000.06
2023-03-04T04:50:02.626Z,1000.09
2023-03-04T04:51:02.665Z,1000.05
2023-03-04T04:52:02.590Z,1000.04
2023-03-04T04:53:02.558Z,1000.00
2023-03-04T04:54:02.542Z,1000.00
2023-03-04T04:55:02.528Z,1000.04
2023-03-04T04:56:02.512Z,1000.03
2023-03-04T04:57:02.473Z,999.98
2023-03-04T04:58:02.458Z,1000.01
2023-03-04T04:59:02.438Z,1000.01
2023-03-04T05:00:02.434Z,1000.06
2023-03-04T05:01:02.418Z,1000.04
2023-03-04T05:02:02.389Z,1000.08
2023-03-04T05:03:02.424Z,1000.04
2023-03-04T05:04:02.342Z,1000.00
2023-03-04T05:05:02.327Z,1000.04
2023-03-04T05:06:02.305Z,1000.07
2023-03-04T05:07:02.290Z,1000.03
2023-03-04T05:08:02.266Z,1000.00
2023-03-04T05:09:02.258Z,1000.07
2023-03-04T05:10:02.228Z,1000.03
2023-03-04T05:11:02.215Z,1000.06
2023-03-04T05:12:02.196Z,1000.07
2023-03-04T05:13:02.174Z,1000.08
2023-03-04T05:14:02.152Z,1000.06
2023-03-04T05:15:02.163Z,1000.06
2023-03-04T05:16:02.142Z,1000.04
2023-03-04T05:17:02.099Z,1000.07
2023-03-04T05:18:02.076Z,999.99
2023-03-04T05:19:02.061Z,1000.01
2023-03-04T05:20:02.052Z,1000.01
2023-03-04T05:21:02.032Z,1000.01
2023-03-04T05:22:02.013Z,1000.03
2023-03-04T05:23:01.989Z,1000.07
2023-03-04T05:24:01.966Z,1000.02
2023-03-04T05:25:01.948Z,999.98
2023-03-04T05:26:01.927Z,999.98
2023-03-04T05:27:01.909Z,999.99
2023-03-04T05:28:01.892Z,1000.02
2023-03-04T05:29:01.869Z,999.99
2023-03-04T05:30:01.851Z,999.95
2023-03-04T05:31:01.883Z,1000.02
2023-03-04T05:32:01.873Z,999.97
2023-03-04T05:33:01.803Z,999.96
2023-03-04T05:34:01.786Z,999.93
2023-03-04T05:35:01.759Z,999.94
2023-03-04T05:36:01.749Z,999.92
2023-03-04T05:37:01.725Z,999.96
2023-03-04T05:38:01.699Z,999.93
2023-03-04T05:39:01.686Z,999.96
2023-03-04T05:40:01.664Z,999.94
2023-03-04T05:41:01.648Z,999.98
2023-03-04T05:42:01.628Z,999.96
2023-03-04T05:43:01.606Z,999.98
2023-03-04T05:44:01.585Z,1000.01
2023-03-04T05:45:01.605Z,1000.00
2023-03-04T05:46:01.569Z,999.99
2023-03-04T05:47:01.530Z,999.97
2023-03-04T05:48:01.513Z,999.95
2023-03-04T05:49:01.492Z,999.99
2023-03-04T05:50:01.475Z,1000.01
2023-03-04T05:51:01.457Z,1000.02
2023-03-04T05:52:01.450Z,1000.05
2023-03-04T05:53:01.422Z,1000.03
2023-03-04T05:54:01.406Z,1000.02
2023-03-04T05:55:01.377Z,1000.01
2023-03-04T05:56:01.363Z,1000.01
2023-03-04T05:57:01.340Z,1000.02
2023-03-04T05:58:01.326Z,1000.00
2023-03-04T05:59:01.307Z,1000.04
2023-03-04T06:00:01.285Z,1000.04
2023-03-04T06:01:01.265Z,1000.03
2023-03-04T06:02:01.259Z,999.98
2023-03-04T06:03:01.331Z,1000.03
2023-03-04T06:04:01.239Z,1000.02
2023-03-04T06:05:01.190Z,1000.04
2023-03-04T06:06:01.180Z,1000.05
2023-03-04T06:07:01.162Z,1000.07
2023-03-04T06:08:01.136Z,1000.04
2023-03-04T06:09:01.124Z,1000.08
2023-03-04T06:10:01.103Z,1000.09
2023-03-04T06:11:01.077Z,1000.04
2023-03-04T06:12:01.056Z,1000.05
2023-03-04T06:13:01.038Z,1000.10
2023-03-04T06:14:01.043Z,1000.13
2023-03-04T06:15:01.000Z,1000.15
2023-03-04T06:16:01.031Z,1000.12
2023-03-04T06:17:00.963Z,1000.14
2023-03-04T06:18:00.948Z,1000.16
2023-03-04T06:19:00.926Z,1000.16
2023-03-04T06:20:00.912Z,1000.20
2023-03-04T06:21:00.902Z,1000.17
2023-03-04T06:22:00.874Z,1000.22
2023-03-04T06:23:00.850Z,1000.23
2023-03-04T06:24:00.831Z,1000.26
2023-03-04T06:25:00.813Z,1000.24
2023-03-04T06:26:00.834Z,1000.26
2023-03-04T06:27:00.778Z,1000.27
2023-03-04T06:28:00.763Z,1000.26
2023-03-04T06:29:00.741Z,1000.29
2023-03-04T06:30:00.727Z,1000.25
2023-03-04T06:31:00.770Z,1000.33
2023-03-04T06:32:00.733Z,1000.27
2023-03-04T06:33:00.670Z,1000.32
2023-03-04T06:34:00.646Z,1000.33
2023-03-04T06:35:00.627Z,1000.30
2023-03-04T06:36:00.655Z,1000.35
2023-03-04T06:37:00.608Z,1000.39
2023-03-04T06:38:00.575Z,1000.42
2023-03-04T06:39:00.556Z,1000.38
2023-03-04T06:40:00.549Z,1000.39
2023-03-04T06:41:00.512Z,1000.41
2023-03-04T06:42:00.508Z,1000.41
2023-03-04T06:43:00.493Z,1000.41
2023-03-04T06:44:00.453Z,1000.45
2023-03-04T06:45:00.434Z,1000.44
2023-03-04T06:46:00.420Z,1000.45
2023-03-04T06:47:00.511Z,1000.50
2023-03-04T06:48:00.387Z,1000.50
2023-03-04T06:49:00.362Z,1000.50
2023-03-04T06:50:00.346Z,1000.52
2023-03-04T06:51:00.325Z,1000.53
2023-03-04T06:52:00.312Z,1000.57
2023-03-04T06:53:00.288Z,1000.56
2023-03-04T06:54:00.270Z,1000.64
2023-03-04T06:55:00.258Z,1000.60
2023-03-04T06:56:00.246Z,1000.64
2023-03-04T06:57:00.217Z,1000.63
2023-03-04T06:58:00.209Z,1000.65
2023-03-04T06:59:00.191Z,1000.66
2023-03-04T07:00:00.159Z,1000.68
2023-03-04T07:01:00.230Z,1000.67
2023-03-04T07:02:00.128Z,1000.67
2023-03-04T07:03:00.121Z,1000.66
2023-03-04T07:04:00.199Z,1000.66
2023-03-04T07:05:00.066Z,1000.67
2023-03-04T07:06:00.051Z,1000.67
2023-03-04T07:07:00.036Z,1000.66
2023-03-04T07:08:00.010Z,1000.61
2023-03-04T07:08:59.992Z,1000.63
2023-03-04T07:09:59.966Z,1000.69
2023-03-04T07:10:59.948Z,1000.65
2023-03-04T07:11:59.932Z,1000.66
2023-03-04T07:12:59.924Z,1000.69
2023-03-04T07:13:59.899Z,1000.65
2023-03-04T07:14:59.888Z,1000.68
2023-03-04T07:15:59.865Z,1000.67
2023-03-04T07:16:59.854Z,1000.71
2023-03-04T07:17:59.823Z,1000.73
2023-03-04T07:18:59.801Z,1000.69
2023-03-04T07:19:59.792Z,1000.72
2023-03-04T07:20:59.782Z,1000.72
2023-03-04T07:21:59.751Z,1000.77
2023-03-04T07:22:59.731Z,1000.73
2023-03-04T07:23:59.712Z,1000.70
2023-03-04T07:24:59.700Z,1000.71
2023-03-04T07:25:59.840Z,1000.70
2023-03-04T07:26:59.659Z,1000.70
2023-03-04T07:27:59.638Z,1000.69
2023-03-04T07:28:59.641Z,1000.69
2023-03-04T07:29:59.602Z,1000.64
2023-03-04T07:30:59.684Z,1000.70
2023-03-04T07:31:59.658Z,1000.70
2023-03-04T07:32:59.553Z,1000.71
2023-03-04T07:33:59.537Z,1000.70
2023-03-04T07:34:59.508Z,1000.71
2023-03-04T07:35:59.492Z,1000.71
2023-03-04T07:36:59.473Z,1000.73
2023-03-04T07:37:59.460Z,1000.73
2023-03-04T07:38:59.442Z,1000.75
2023-03-04T07:39:59.417Z,1000.72
2023-03-04T07:40:59.428Z,1000.74
2023-03-04T07:41:59.386Z,1000.76
2023-03-04T07:42:59.373Z,1000.76
2023-03-04T07:43:59.354Z,1000.78
2023-03-04T07:44:59.347Z,1000.77
2023-03-04T07:45:59.385Z,1000.78
2023-03-04T07:46:59.295Z,1000.78
2023-03-04T07:47:59.278Z,1000.80
2023-03-04T07:48:59.257Z,1000.80
2023-03-04T07:49:59.237Z,1000.83
2023-03-04T07:50:59.225Z,1000.82
2023-03-04T07:51:59.197Z,1000.86
2023-03-04T07:52:59.183Z,1000.85
2023-03-04T07:53:59.171Z,1000.87
2023-03-04T07:54:59.154Z,1000.89
2023-03-04T07:56:00.466Z,1000.92
2023-03-04T07:56:59.115Z,1000.92
2023-03-04T07:57:59.094Z,1000.94
2023-03-04T07:58:59.075Z,1000.93
2023-03-04T07:59:59.055Z,1000.92
2023-03-04T08:00:59.042Z,1000.94
2023-03-04T08:01:59.017Z,1000.92
2023-03-04T08:02:59.001Z,1000.91
2023-03-04T08:03:59.049Z,1000.95
2023-03-04T08:04:58.969Z,1000.95
2023-03-04T08:05:58.959Z,1000.99
2023-03-04T08:06:58.931Z,1000.96
2023-03-04T08:07:58.928Z,1000.95
2023-03-04T08:08:58.901Z,1000.88
2023-03-04T08:09:58.878Z,1000.91
2023-03-04T08:10:58.873Z,1000.91
2023-03-04T08:11:58.847Z,1000.92
2023-03-04T08:12:58.844Z,1000.93
2023-03-04T08:13:58.819Z,1000.94
2023-03-04T08:14:58.786Z,1000.94
2023-03-04T08:15:58.903Z,1000.98
2023-03-04T08:16:58.753Z,1000.98
2023-03-04T08:17:59.776Z,1000.94
2023-03-04T08:18:58.723Z,1000.96
2023-03-04T08:19:58.843Z,1000.98
2023-03-04T08:20:58.683Z,1000.98
2023-03-04T08:21:58.662Z,1001.01
2023-03-04T08:22:58.645Z,1001.02
2023-03-04T08:23:58.678Z,1001.00
2023-03-04T08:24:58.693Z,1000.97
2023-03-04T08:25:58.589Z,1001.01
2023-03-04T08:26:58.568Z,1001.00
2023-03-04T08:27:58.556Z,1001.00
2023-03-04T08:28:58.532Z,1001.02
2023-03-04T08:29:58.520Z,1001.01
2023-03-04T08:30:58.519Z,1001.02
2023-03-04T08:31:58.683Z,1001.04
2023-03-04T08:32:58.506Z,1001.02
2023-03-04T08:33:58.458Z,1001.08
2023-03-04T08:34:58.441Z,1001.03
2023-03-04T08:35:58.433Z,1001.06
2023-03-04T08:36:58.392Z,1001.05
2023-03-04T08:37:59.716Z,1001.07
2023-03-04T08:38:58.356Z,1001.07
2023-03-04T08:39:58.347Z,1001.06
2023-03-04T08:40:58.325Z,1001.09
2023-03-04T08:41:58.304Z,1001.12
2023-03-04T08:42:58.286Z,1001.10
2023-03-04T08:43:58.286Z,1001.11
2023-03-04T08:44:58.253Z,1001.10
2023-03-04T08:45:58.261Z,1001.13
2023-03-04T08:46:58.215Z,1001.12
2023-03-04T08:47:58.197Z,1001.15
2023-03-04T08:48:58.180Z,1001.15
2023-03-04T08:49:58.176Z,1001.17
2023-03-04T08:50:58.152Z,1001.19
2023-03-04T08:51:58.134Z,1001.22
2023-03-04T08:52:58.115Z,1001.18
2023-03-04T08:53:58.099Z,1001.21
2023-03-04T08:54:58.076Z,1001.24
2023-03-04T08:55:58.062Z,1001.24
2023-03-04T08:56:58.044Z,1001.28
2023-03-04T08:57:58.120Z,1001.28
2023-03-04T08:58:58.007Z,1001.32
2023-03-04T08:59:57.994Z,1001.28
2023-03-04T09:00:57.973Z,1001.27
2023-03-04T09:01:57.974Z,1001.28
2023-03-04T09:02:57.940Z,1001.27
2023-03-04T09:03:58.014Z,1001.26
2023-03-04T09:04:57.901Z,1001.23
2023-03-04T09:05:57.884Z,1001.23
2023-03-04T09:06:57.868Z,1001.22
2023-03-04T09:07:57.852Z,1001.23
2023-03-04T09:08:57.837Z,1001.23
2023-03-04T09:09:57.826Z,1001.20
2023-03-04T09:10:57.797Z,1001.22
2023-03-04T09:11:57.788Z,1001.25
2023-03-04T09:12:57.768Z,1001.20
2023-03-04T09:13:57.784Z,1001.18
2023-03-04T09:15:10.313Z,1001.17
2023-03-04T09:15:57.812Z,1001.15
2023-03-04T09:16:57.697Z,1001.13
2023-03-04T09:17:57.695Z,1001.16
2023-03-04T09:18:57.661Z,1001.16
2023-03-04T09:19:57.655Z,1001.18
2023-03-04T09:20:57.636Z,1001.17
2023-03-04T09:21:57.615Z,1001.14
2023-03-04T09:22:57.595Z,1001.12
2023-03-04T09:23:57.576Z,1001.12
2023-03-04T09:24:57.558Z,1001.13
2023-03-04T09:25:57.541Z,1001.12
2023-03-04T09:26:57.521Z,1001.11
2023-03-04T09:27:57.509Z,1001.12
2023-03-04T09:28:57.508Z,1001.10
2023-03-04T09:29:57.472Z,1001.11
2023-03-04T09:30:57.532Z,1001.09
2023-03-04T09:31:57.462Z,1001.11
2023-03-04T09:32:57.423Z,1001.08
2023-03-04T09:33:57.403Z,1001.15
2023-03-04T09:34:57.392Z,1001.11
2023-03-04T09:35:57.435Z,1001.15
2023-03-04T09:36:57.356Z,1001.12
2023-03-04T09:37:57.334Z,1001.17
2023-03-04T09:38:57.319Z,1001.19
2023-03-04T09:39:57.306Z,1001.19
2023-03-04T09:40:57.285Z,1001.16
2023-03-04T09:41:57.274Z,1001.18
2023-03-04T09:42:57.262Z,1001.13
2023-03-04T09:43:57.244Z,1001.16
2023-03-04T09:44:57.225Z,1001.19
2023-03-04T09:45:57.215Z,1001.17
2023-03-04T09:46:57.200Z,1001.15
2023-03-04T09:47:57.169Z,1001.18
2023-03-04T09:48:57.165Z,1001.14
2023-03-04T09:49:57.134Z,1001.13
2023-03-04T09:50:57.124Z,1001.16
2023-03-04T09:51:57.104Z,1001.16
2023-03-04T09:52:57.084Z,1001.14
2023-03-04T09:53:57.069Z,1001.15
2023-03-04T09:54:57.052Z,1001.15
2023-03-04T09:55:57.034Z,1001.14
2023-03-04T09:56:57.017Z,1001.15
2023-03-04T09:57:57.000Z,1001.14
2023-03-04T09:58:56.993Z,1001.09
2023-03-04T09:59:56.970Z,1001.14
2023-03-04T10:00:57.051Z,1001.11
2023-03-04T10:01:56.939Z,1001.15
2023-03-04T10:02:56.919Z,1001.14
2023-03-04T10:03:56.949Z,1001.12
2023-03-04T10:04:56.968Z,1001.10
2023-03-04T10:05:56.873Z,1001.13
2023-03-04T10:06:56.863Z,1001.12
2023-03-04T10:07:56.841Z,1001.11
2023-03-04T10:08:56.826Z,1001.16
2023-03-04T10:09:56.804Z,1001.11
2023-03-04T10:10:56.870Z,1001.08
2023-03-04T10:11:56.770Z,1001.09
2023-03-04T10:12:56.759Z,1001.11
2023-03-04T10:13:56.737Z,1001.11
2023-03-04T10:14:56.724Z,1001.09
2023-03-04T10:15:56.736Z,1001.10
2023-03-04T10:16:56.707Z,1001.09
2023-03-04T10:17:56.675Z,1001.08
2023-03-04T10:18:56.671Z,1001.11
2023-03-04T10:19:56.673Z,1001.10
2023-03-04T10:20:56.625Z,1001.10
2023-03-04T10:21:56.609Z,1001.06
2023-03-04T10:22:56.657Z,1001.09
2023-03-04T10:23:59.402Z,1001.05
2023-03-04T10:24:56.568Z,1001.10
2023-03-04T10:25:56.605Z,1001.05
2023-03-04T10:26:56.529Z,1001.09
2023-03-04T10:27:56.521Z,1001.11
2023-03-04T10:28:56.493Z,1001.08
2023-03-04T10:29:56.478Z,1001.08
2023-03-04T10:30:56.473Z,1001.11
2023-03-04T10:31:56.652Z,1001.07
2023-03-04T10:32:56.424Z,1001.11
2023-03-04T10:33:56.418Z,1001.10
2023-03-04T10:34:56.390Z,1001.07
2023-03-04T10:35:56.420Z,1001.07
2023-03-04T10:36:56.358Z,1001.02
2023-03-04T10:37:56.339Z,1001.02
2023-03-04T10:38:56.320Z,1001.01
2023-03-04T10:39:56.310Z,1001.03
2023-03-04T10:40:56.292Z,1001.02
2023-03-04T10:41:56.326Z,1001.04
2023-03-04T10:42:56.278Z,1000.99
2023-03-04T10:43:56.246Z,1001.01
2023-03-04T10:44:56.226Z,1001.00
2023-03-04T10:45:56.224Z,1001.01
2023-03-04T10:46:56.193Z,1001.01
2023-03-04T10:47:56.195Z,1000.97
2023-03-04T10:48:56.156Z,1001.01
2023-03-04T10:49:56.149Z,1001.03
2023-03-04T10:50:56.125Z,1001.01
2023-03-04T10:51:57.676Z,1001.04
2023-03-04T10:52:56.103Z,1000.99
2023-03-04T10:53:56.086Z,1001.00
2023-03-04T10:54:56.068Z,1000.99
2023-03-04T10:55:56.044Z,1000.94
2023-03-04T10:56:56.029Z,1000.94
2023-03-04T10:57:57.871Z,1000.93
2023-03-04T10:58:56.023Z,1000.94
2023-03-04T10:59:55.996Z,1000.93
2023-03-04T11:00:55.990Z,1000.90
2023-03-04T11:01:55.946Z,1000.87
2023-03-04T11:02:55.929Z,1000.85
2023-03-04T11:03:55.956Z,1000.85
2023-03-04T11:04:55.898Z,1000.89
2023-03-04T11:05:55.882Z,1000.87
2023-03-04T11:06:55.868Z,1000.81
2023-03-04T11:07:57.544Z,1000.83
2023-03-04T11:08:55.855Z,1000.87
2023-03-04T11:09:58.337Z,1000.78
2023-03-04T11:10:55.797Z,1000.82
2023-03-04T11:11:55.789Z,1000.77
2023-03-04T11:12:55.779Z,1000.80
2023-03-04T11:13:55.756Z,1000.76
2023-03-04T11:14:55.815Z,1000.73
2023-03-04T11:15:58.141Z,1000.74
2023-03-04T11:16:55.800Z,1000.72
2023-03-04T11:17:55.695Z,1000.77
2023-03-04T11:18:55.676Z,1000.72
2023-03-04T11:19:55.656Z,1000.71
2023-03-04T11:20:55.648Z,1000.71
2023-03-04T11:21:55.627Z,1000.71
2023-03-04T11:22:55.619Z,1000.70
2023-03-04T11:23:55.602Z,1000.72
2023-03-04T11:24:55.572Z,1000.70
2023-03-04T11:25:55.563Z,1000.69
2023-03-04T11:26:55.546Z,1000.68
2023-03-04T11:27:55.534Z,1000.67
2023-03-04T11:28:55.538Z,1000.64
2023-03-04T11:29:55.501Z,1000.68
2023-03-04T11:30:55.492Z,1000.65
2023-03-04T11:31:55.720Z,1000.65
2023-03-04T11:32:55.452Z,1000.66
2023-03-04T11:33:55.439Z,1000.65
2023-03-04T11:34:55.419Z,1000.63
2023-03-04T11:35:55.414Z,1000.63
2023-03-04T11:36:55.395Z,1000.62
2023-03-04T11:37:55.381Z,1000.62
2023-03-04T11:38:55.380Z,1000.61
2023-03-04T11:39:55.356Z,1000.55
2023-03-04T11:40:55.340Z,1000.60
2023-03-04T11:41:55.329Z,1000.56
2023-03-04T11:42:55.326Z,1000.58
2023-03-04T11:43:55.300Z,1000.51
2023-03-04T11:44:55.286Z,1000.53
2023-03-04T11:45:55.379Z,1000.51
2023-03-04T11:46:55.271Z,1000.58
2023-03-04T11:47:55.245Z,1000.51
2023-03-04T11:48:55.237Z,1000.51
2023-03-04T11:49:55.220Z,1000.49
2023-03-04T11:50:55.199Z,1000.48
2023-03-04T11:51:55.207Z,1000.48
2023-03-04T11:52:55.172Z,1000.45
2023-03-04T11:53:55.156Z,1000.47
2023-03-04T11:54:55.138Z,1000.54
2023-03-04T11:55:55.162Z,1000.44
2023-03-04T11:56:55.096Z,1000.46
2023-03-04T11:57:55.079Z,1000.45
2023-03-04T11:58:55.064Z,1000.40
2023-03-04T11:59:55.070Z,1000.38
2023-03-04T12:00:55.048Z,1000.41
2023-03-04T12:01:55.022Z,1000.38
2023-03-04T12:02:55.023Z,1000.33
2023-03-04T12:03:55.073Z,1000.34
2023-03-04T12:04:55.035Z,1000.35
2023-03-04T12:05:55.119Z,1000.35